Searchlight, NV

1:37 AM PST en Noviembre 28, 2014 (GMT -0800)
Boulder City | Change Station
CLOSE
Current Station
Aeropuerto
Location: Boulder City,
Altura: 2201 ft
Estaciones meteorológicas cercanas

Alt 2201 ft 35.95 °N, 114.86 °W | Updated 42 minutes ago

Despejado
Despejado
41 ° F
Sensación térmica 41 ° F
N
0
Viento Variable Viento desde Norte

Hoy
Alta -- | Baja -- ° F
--% Posibilidad de precipitaciones
Ayer
Alta -- | Baja -- ° F
Precip. -- pul
6:28 AM 4:26 PM
Creciente, 38% visible
Presión 30.14 pul
Visibilidad 10.0 Millas
Nubes Despejado
Punto de rocío 27 ° F
Humedad 57%
Precipitaciones 0.00 pul
Espesor de la nieve No disponible.
UV 0 de una escala de 12
Polen 2.90 de una escala de 12
Calidad del aire No disponible.
Flu Activity No disponible.
METAR KBVU 280855Z AUTO 00000KT 10SM CLR 05/M03 A3014 RMK AO2

More Conditions Fewer Conditions

Presión 30.14 pul
Visibilidad 10.0 Millas
Nubes Despejado
Punto de rocío 27 ° F
Humedad 57%
Precipitaciones 0.00 pul
Espesor de la nieve No disponible.
UV 0 de una escala de 12
Polen 2.90 de una escala de 12
Calidad del aire No disponible.
Flu Activity No disponible.
METAR KBVU 280855Z AUTO 00000KT 10SM CLR 05/M03 A3014 RMK AO2

More Conditions Fewer Conditions

10-Day Weather Forecast

Almanac

Astronomía

Nov. 28, 2014 Salida Puesta
Hora real
Crepúsculo civil
Crepúsculo náutico
Crepúsculo astronómico
Luna
Horas de luz
Horas de luz
Tomorrow will be .
, % of the Moon is Illuminated

Extremos de hoy

Máximos del estado Bajos del estado

Community

WunderPhotos

Upload Photos

1,774,190 ¡fotos cargadas!

WunderBlogs® & News

Nearby

Calidad del aire

  Calidad del aire Índice AQ Contaminante
Not available.

Grosos de nieve

Estación Profundido Altura

Actividad de terremotos

Ciudad Distance Mag. Tiempo y dato
Magnitud mínima muestra es 2,5.

Temperaturas de aguas costeras

Lugar Temperatura

Estaciones meteorológicas cercanas